Time;durP1;ratioP1;P1;durP2;ratioP2;P2;SDS_P1;SDS_P2;PMS_P1;PMS_P2;Temp;Humidity;BMP_temperature;BMP_pressure;BME280_temperature;BME280_humidity;BME280_pressure;Samples;Min_cycle;Max_cycle;Signal;HPM_P1;HPM_P2
2023/10/25 00:02:16;;;;;;;13.93;4.53;;;9.50;99.90;;;;;;5033178;28;20047;-51
2023/10/25 00:04:41;;;;;;;11.07;4.13;;;9.30;99.90;;;;;;5050858;28;20045;-54
2023/10/25 00:07:08;;;;;;;12.73;4.82;;;9.30;99.90;;;;;;5051277;28;20410;-50
2023/10/25 00:09:33;;;;;;;11.95;4.82;;;9.40;99.90;;;;;;5051244;28;20045;-52
2023/10/25 00:11:59;;;;;;;9.30;4.55;;;9.10;99.90;;;;;;5033048;28;20047;-53
2023/10/25 00:14:25;;;;;;;13.85;7.80;;;9.20;99.90;;;;;;5045193;28;20045;-52
2023/10/25 00:16:51;;;;;;;12.18;4.45;;;9.00;99.90;;;;;;5051119;28;20040;-48
2023/10/25 00:19:16;;;;;;;16.95;7.10;;;9.30;99.90;;;;;;5051346;28;20044;-53
2023/10/25 00:21:42;;;;;;;10.75;4.43;;;9.20;99.90;;;;;;5051626;28;20411;-54
2023/10/25 00:24:08;;;;;;;11.35;4.80;;;9.10;99.90;;;;;;5051242;28;20040;-51
2023/10/25 00:26:33;;;;;;;10.05;4.82;;;9.30;99.90;;;;;;5050875;28;20039;-53
2023/10/25 00:28:59;;;;;;;12.60;7.35;;;9.00;99.90;;;;;;5032461;28;20043;-50
2023/10/25 00:31:25;;;;;;;13.05;4.95;;;9.20;99.90;;;;;;5050897;28;20087;-52
2023/10/25 00:33:51;;;;;;;13.98;7.80;;;9.00;99.90;;;;;;5050486;28;20523;-52
2023/10/25 00:36:17;;;;;;;14.15;4.93;;;9.10;99.90;;;;;;5051118;28;20041;-51
2023/10/25 00:38:43;;;;;;;12.30;5.22;;;9.00;99.90;;;;;;5050841;28;20431;-55
2023/10/25 00:41:09;;;;;;;10.68;4.80;;;9.10;99.90;;;;;;5050535;28;20480;-54
2023/10/25 00:43:35;;;;;;;13.55;5.25;;;9.20;99.90;;;;;;5050441;28;20269;-51
2023/10/25 00:46:31;;;;;;;11.50;5.13;;;9.10;99.90;;;;;;5051014;28;20037;-53
2023/10/25 00:48:59;;;;;;;12.15;4.97;;;9.20;99.90;;;;;;5046145;28;20052;-54
2023/10/25 00:51:28;;;;;;;17.58;5.03;;;9.10;99.90;;;;;;5049790;28;20049;-52
2023/10/25 00:53:55;;;;;;;12.57;5.00;;;8.90;99.90;;;;;;5049708;28;20568;-53
2023/10/25 00:56:24;;;;;;;12.90;5.25;;;9.20;99.90;;;;;;5050832;28;20058;-52
2023/10/25 00:58:53;;;;;;;19.10;8.20;;;9.00;99.90;;;;;;5049776;28;20047;-53
2023/10/25 01:01:19;;;;;;;13.43;5.53;;;8.80;99.90;;;;;;5049337;28;20040;-51
2023/10/25 01:03:45;;;;;;;13.02;5.20;;;8.80;99.90;;;;;;5050684;28;20048;-54
2023/10/25 01:06:11;;;;;;;16.73;5.32;;;8.80;99.90;;;;;;5050597;28;20037;-53
2023/10/25 01:08:37;;;;;;;11.93;4.75;;;8.80;99.90;;;;;;5032394;28;20095;-52
2023/10/25 01:11:05;;;;;;;13.50;5.15;;;9.10;99.90;;;;;;5050365;28;20041;-54
2023/10/25 01:13:31;;;;;;;12.82;5.70;;;8.70;99.90;;;;;;5050354;28;20033;-54
2023/10/25 01:15:56;;;;;;;11.80;5.53;;;8.80;99.90;;;;;;5050272;28;20120;-49
2023/10/25 01:18:23;;;;;;;13.70;5.38;;;8.80;99.90;;;;;;5050032;28;20052;-51
2023/10/25 01:20:48;;;;;;;14.60;5.82;;;8.70;99.90;;;;;;5050623;28;20040;-52
2023/10/25 01:23:14;;;;;;;15.38;5.95;;;8.70;99.90;;;;;;5050627;28;20489;-53
2023/10/25 01:25:42;;;;;;;14.90;9.40;;;9.00;99.90;;;;;;5049989;28;20044;-52
2023/10/25 01:28:09;;;;;;;12.10;6.00;;;9.00;99.90;;;;;;5050515;28;20040;-50
2023/10/25 01:30:34;;;;;;;14.40;6.47;;;8.80;99.90;;;;;;5050660;28;20037;-53
2023/10/25 01:33:00;;;;;;;16.48;6.05;;;8.80;99.90;;;;;;5050103;28;20036;-52
2023/10/25 01:35:26;;;;;;;18.35;7.90;;;9.00;99.90;;;;;;5050239;28;20080;-52
2023/10/25 01:37:52;;;;;;;17.88;8.10;;;8.70;99.90;;;;;;5049908;28;20044;-53
2023/10/25 01:40:18;;;;;;;16.55;12.15;;;9.00;99.90;;;;;;5049848;28;20041;-52
2023/10/25 01:42:44;;;;;;;16.35;8.13;;;8.70;99.90;;;;;;5031779;28;20051;-53
2023/10/25 01:45:11;;;;;;;17.58;8.07;;;8.70;99.90;;;;;;5051453;28;20087;-49
2023/10/25 01:47:37;;;;;;;19.52;13.38;;;8.90;99.90;;;;;;5053879;28;20553;-52
2023/10/25 01:50:03;;;;;;;19.60;7.88;;;9.00;99.90;;;;;;5054222;28;20044;-52
2023/10/25 01:52:30;;;;;;;18.73;8.40;;;9.00;99.90;;;;;;5054237;28;20041;-52
2023/10/25 01:54:55;;;;;;;18.98;12.82;;;8.80;99.90;;;;;;5053903;28;20491;-52
2023/10/25 01:57:21;;;;;;;20.13;7.65;;;8.70;99.90;;;;;;5053722;28;20103;-54
2023/10/25 01:59:47;;;;;;;19.73;8.38;;;8.80;99.90;;;;;;5053234;28;20040;-54
2023/10/25 02:02:13;;;;;;;17.83;8.45;;;8.60;99.90;;;;;;5053242;28;20048;-53
2023/10/25 02:04:39;;;;;;;15.02;7.85;;;9.00;99.90;;;;;;5053608;28;20071;-53
2023/10/25 02:07:04;;;;;;;17.40;12.02;;;8.70;99.90;;;;;;5054006;28;20440;-52
2023/10/25 02:09:30;;;;;;;14.48;7.47;;;9.00;99.90;;;;;;5053527;28;20044;-51
2023/10/25 02:11:56;;;;;;;14.15;7.68;;;8.90;99.90;;;;;;5053330;28;20037;-52
2023/10/25 02:14:22;;;;;;;18.27;6.85;;;8.90;99.90;;;;;;5053881;28;20033;-48
2023/10/25 02:16:48;;;;;;;17.17;7.75;;;8.50;99.90;;;;;;5053328;28;20420;-50
2023/10/25 02:19:17;;;;;;;14.20;7.25;;;8.80;99.90;;;;;;5052220;28;20040;-54
2023/10/25 02:21:43;;;;;;;14.93;6.72;;;8.50;99.90;;;;;;5051822;28;20041;-53
2023/10/25 02:24:14;;;;;;;15.60;7.65;;;8.70;99.90;;;;;;5035065;28;20110;-52
2023/10/25 02:26:40;;;;;;;14.30;7.50;;;8.50;99.90;;;;;;5053408;28;20064;-54
2023/10/25 02:29:06;;;;;;;16.25;7.65;;;8.70;99.90;;;;;;5051020;28;20044;-54
2023/10/25 02:31:36;;;;;;;18.20;8.20;;;8.50;99.90;;;;;;5053113;28;20036;-50
2023/10/25 02:34:03;;;;;;;15.63;8.57;;;8.40;99.90;;;;;;5053164;28;20496;-57
2023/10/25 02:36:30;;;;;;;19.73;8.63;;;8.40;99.90;;;;;;5053127;28;20469;-52
2023/10/25 02:38:56;;;;;;;20.35;8.70;;;8.40;99.90;;;;;;5052996;28;20041;-51
2023/10/25 02:41:22;;;;;;;19.05;8.32;;;8.50;99.90;;;;;;5052778;28;20047;-53
2023/10/25 02:43:51;;;;;;;17.67;7.57;;;8.40;99.90;;;;;;5052840;28;20051;-52
2023/10/25 02:46:17;;;;;;;19.80;9.07;;;8.40;99.90;;;;;;5052621;28;20035;-51
2023/10/25 02:48:43;;;;;;;21.38;8.07;;;8.40;99.90;;;;;;5052478;28;20084;-51
2023/10/25 02:51:09;;;;;;;17.38;8.23;;;8.60;99.90;;;;;;5052878;28;20090;-52
2023/10/25 02:53:35;;;;;;;15.40;7.93;;;8.30;99.90;;;;;;5053002;28;20103;-51
2023/10/25 02:56:06;;;;;;;15.52;8.10;;;8.70;99.90;;;;;;5052006;28;20036;-54
2023/10/25 02:58:32;;;;;;;17.23;12.75;;;8.20;99.90;;;;;;5034829;28;20094;-52
2023/10/25 03:00:59;;;;;;;21.20;7.85;;;8.70;99.90;;;;;;5052231;28;20033;-53
2023/10/25 03:03:27;;;;;;;21.60;8.18;;;8.60;99.90;;;;;;5052569;28;20037;-52
2023/10/25 03:05:53;;;;;;;15.45;7.15;;;8.30;99.90;;;;;;5052055;28;20109;-51
2023/10/25 03:08:19;;;;;;;20.75;9.15;;;8.30;99.90;;;;;;5052465;28;20087;-50
2023/10/25 03:10:45;;;;;;;19.10;7.97;;;8.50;99.90;;;;;;5052238;28;20033;-54
2023/10/25 03:13:11;;;;;;;13.30;7.57;;;8.60;99.90;;;;;;5034702;28;20037;-51
2023/10/25 03:15:36;;;;;;;13.50;7.13;;;8.20;99.90;;;;;;5050290;28;20064;-52
2023/10/25 03:18:03;;;;;;;18.35;7.45;;;8.20;99.90;;;;;;5052416;28;20045;-52
2023/10/25 03:20:28;;;;;;;14.23;6.95;;;8.20;99.90;;;;;;5050287;28;20132;-52
2023/10/25 03:22:55;;;;;;;19.90;7.30;;;8.10;99.90;;;;;;5051105;28;20262;-49
2023/10/25 03:25:21;;;;;;;13.68;7.63;;;8.10;99.90;;;;;;5052064;28;20097;-51
2023/10/25 03:27:46;;;;;;;16.05;7.10;;;8.50;99.90;;;;;;5052408;28;20028;-52
2023/10/25 03:30:12;;;;;;;13.63;7.13;;;8.50;99.90;;;;;;5017729;28;20112;-52
2023/10/25 03:32:38;;;;;;;15.27;6.75;;;8.40;99.90;;;;;;5051741;28;20090;-47
2023/10/25 03:35:05;;;;;;;16.25;6.43;;;8.30;99.90;;;;;;5033648;28;20045;-52
2023/10/25 03:37:31;;;;;;;17.40;6.63;;;8.20;99.90;;;;;;5051070;28;20052;-49
2023/10/25 03:39:56;;;;;;;14.68;10.10;;;8.70;99.90;;;;;;5051659;28;20380;-50
2023/10/25 03:42:22;;;;;;;12.88;6.90;;;8.20;99.90;;;;;;5051556;28;20087;-52
2023/10/25 03:44:48;;;;;;;10.45;5.63;;;8.30;99.90;;;;;;5051687;28;20045;-51
2023/10/25 03:47:13;;;;;;;10.40;5.55;;;8.60;99.90;;;;;;5052045;28;20845;-51
2023/10/25 03:49:39;;;;;;;15.88;9.80;;;8.10;99.90;;;;;;5051332;28;20484;-51
2023/10/25 03:52:05;;;;;;;14.85;6.43;;;8.30;99.90;;;;;;5051646;28;20044;-51
2023/10/25 03:54:30;;;;;;;15.13;6.32;;;8.50;99.90;;;;;;5051476;28;20045;-51
2023/10/25 03:56:56;;;;;;;16.13;10.32;;;8.20;99.90;;;;;;5033136;28;20041;-52
2023/10/25 03:59:22;;;;;;;14.25;5.93;;;8.40;99.90;;;;;;5047274;28;20044;-50
2023/10/25 04:01:48;;;;;;;12.90;6.00;;;8.10;99.90;;;;;;5049708;28;20108;-49
2023/10/25 04:04:13;;;;;;;11.50;6.20;;;8.30;99.90;;;;;;5032353;28;20048;-50
2023/10/25 04:06:39;;;;;;;15.10;11.25;;;8.40;99.90;;;;;;5050183;28;20033;-53
2023/10/25 04:09:05;;;;;;;14.38;6.13;;;8.10;99.90;;;;;;5050202;28;20083;-51
2023/10/25 04:11:31;;;;;;;15.48;6.75;;;8.10;99.90;;;;;;5051142;28;20485;-53
2023/10/25 04:13:57;;;;;;;14.82;6.43;;;8.20;99.90;;;;;;5050471;28;20033;-54
2023/10/25 04:16:23;;;;;;;15.63;11.07;;;8.00;99.90;;;;;;5050023;28;20037;-52
2023/10/25 04:18:48;;;;;;;15.25;6.90;;;8.40;99.90;;;;;;5050016;28;20488;-50
2023/10/25 04:21:14;;;;;;;13.95;6.63;;;8.40;99.90;;;;;;5050296;28;20472;-54
2023/10/25 04:23:40;;;;;;;17.98;11.35;;;8.10;99.90;;;;;;5050522;28;20068;-53
2023/10/25 04:26:07;;;;;;;18.13;7.28;;;8.20;99.90;;;;;;5051052;28;20561;-52
2023/10/25 04:28:34;;;;;;;12.52;6.55;;;8.40;99.90;;;;;;5050182;28;20189;-48
2023/10/25 04:31:00;;;;;;;16.98;11.57;;;7.90;99.90;;;;;;5050634;28;20535;-52
2023/10/25 04:33:26;;;;;;;12.98;6.53;;;8.30;99.90;;;;;;5050377;28;20120;-51
2023/10/25 04:35:52;;;;;;;17.25;6.88;;;8.40;99.90;;;;;;5049762;28;20045;-52
2023/10/25 04:38:18;;;;;;;21.45;6.72;;;8.00;99.90;;;;;;5047597;28;20045;-53
2023/10/25 04:40:44;;;;;;;13.65;7.18;;;8.20;99.90;;;;;;5049389;28;20041;-52
2023/10/25 04:43:10;;;;;;;19.00;7.15;;;8.10;99.90;;;;;;5015524;28;20044;-51
2023/10/25 04:45:36;;;;;;;13.88;7.22;;;7.50;99.90;;;;;;5047515;28;20452;-53
2023/10/25 04:48:02;;;;;;;19.90;8.35;;;8.10;99.90;;;;;;5049902;28;20443;-52
2023/10/25 04:50:32;;;;;;;17.35;7.85;;;7.80;99.90;;;;;;5050195;28;20043;-50
2023/10/25 04:52:59;;;;;;;18.20;12.20;;;7.80;99.90;;;;;;5047723;28;20045;-53
2023/10/25 04:55:26;;;;;;;17.42;6.80;;;7.70;99.90;;;;;;5031177;28;20048;-52
2023/10/25 04:57:52;;;;;;;15.68;7.13;;;7.70;99.90;;;;;;5030823;28;20370;-52
2023/10/25 05:00:18;;;;;;;18.23;8.38;;;8.20;99.90;;;;;;5050675;28;20129;-52
2023/10/25 05:02:44;;;;;;;16.85;7.72;;;8.10;99.90;;;;;;5050440;28;20032;-54
2023/10/25 05:05:09;;;;;;;23.70;13.32;;;7.70;99.90;;;;;;5032553;28;20037;-50
2023/10/25 05:07:39;;;;;;;14.55;7.53;;;7.90;99.90;;;;;;5050460;28;20442;-52
2023/10/25 05:10:06;;;;;;;16.33;7.57;;;7.70;99.90;;;;;;5050167;28;20037;-51
2023/10/25 05:12:45;;;;;;;20.67;14.40;;;7.80;99.90;;;;;;5048880;28;20120;-50
2023/10/25 05:15:13;;;;;;;18.48;14.68;;;8.10;99.90;;;;;;5050046;28;20097;-52
2023/10/25 05:17:44;;;;;;;21.05;7.78;;;8.10;99.90;;;;;;5032403;28;20359;-51
2023/10/25 05:20:10;;;;;;;19.83;14.88;;;7.70;99.90;;;;;;5053700;28;20048;-54
2023/10/25 05:22:41;;;;;;;14.63;7.55;;;8.10;99.90;;;;;;5054518;28;20178;-51
2023/10/25 05:25:09;;;;;;;22.42;14.55;;;8.10;99.90;;;;;;5054483;28;20506;-51
2023/10/25 05:27:35;;;;;;;13.82;7.72;;;7.70;99.90;;;;;;5054246;28;20111;-49
2023/10/25 05:30:07;;;;;;;17.17;8.00;;;7.90;99.90;;;;;;5050719;28;20391;-51
2023/10/25 05:32:35;;;;;;;17.38;8.75;;;7.90;99.90;;;;;;5053410;28;20033;-53
2023/10/25 05:35:02;;;;;;;19.92;8.38;;;7.70;99.90;;;;;;5054650;28;20495;-52
2023/10/25 05:37:29;;;;;;;16.58;8.70;;;8.00;99.90;;;;;;5054472;28;20041;-51
2023/10/25 05:39:55;;;;;;;19.85;8.93;;;7.60;99.90;;;;;;5054155;28;20041;-51
2023/10/25 05:42:23;;;;;;;17.50;8.25;;;7.90;99.90;;;;;;5053812;28;20102;-50
2023/10/25 05:44:56;;;;;;;20.55;9.10;;;8.00;99.90;;;;;;5053907;28;20151;-51
2023/10/25 05:47:26;;;;;;;20.17;8.23;;;7.90;99.90;;;;;;5052766;28;20064;-49
2023/10/25 05:49:52;;;;;;;20.95;8.57;;;7.70;99.90;;;;;;5053625;28;20044;-54
2023/10/25 05:52:18;;;;;;;21.13;8.80;;;7.60;99.90;;;;;;5034697;28;20059;-52
2023/10/25 05:54:44;;;;;;;17.63;9.02;;;7.90;99.90;;;;;;5052067;28;20041;-51
2023/10/25 05:57:10;;;;;;;19.25;9.13;;;7.90;99.90;;;;;;5035332;28;20052;-51
2023/10/25 05:59:36;;;;;;;22.42;8.82;;;7.50;99.90;;;;;;5053476;28;20040;-53
2023/10/25 06:02:12;;;;;;;24.00;9.52;;;7.50;99.90;;;;;;5053046;28;20097;-54
2023/10/25 06:04:39;;;;;;;25.05;9.15;;;7.70;99.90;;;;;;5052230;28;20124;-51
2023/10/25 06:07:06;;;;;;;17.80;8.15;;;7.80;99.90;;;;;;5052442;28;20037;-48
2023/10/25 06:09:32;;;;;;;23.88;10.45;;;7.50;99.90;;;;;;5052542;28;20033;-50
2023/10/25 06:11:58;;;;;;;21.35;9.13;;;7.90;99.90;;;;;;5052901;28;20381;-53
2023/10/25 06:14:24;;;;;;;18.67;8.75;;;7.90;99.90;;;;;;5034286;28;20047;-52
2023/10/25 06:16:50;;;;;;;20.40;8.63;;;7.90;99.90;;;;;;5003121;28;20547;-51
2023/10/25 06:19:15;;;;;;;23.05;8.90;;;7.60;99.90;;;;;;5052897;28;20047;-52
2023/10/25 06:21:41;;;;;;;16.45;8.32;;;7.50;99.90;;;;;;5050925;28;20041;-53
2023/10/25 06:24:07;;;;;;;17.50;8.57;;;7.70;99.90;;;;;;5052375;28;20403;-51
2023/10/25 06:26:33;;;;;;;20.08;9.02;;;7.50;99.90;;;;;;5050238;28;20033;-54
2023/10/25 06:28:59;;;;;;;25.30;8.50;;;7.80;99.90;;;;;;5052313;28;20028;-53
2023/10/25 06:31:24;;;;;;;22.50;15.52;;;7.80;99.90;;;;;;5051179;28;20461;-51
2023/10/25 06:33:50;;;;;;;18.88;8.60;;;8.00;99.90;;;;;;5052285;28;20037;-52
2023/10/25 06:36:16;;;;;;;19.95;8.57;;;7.60;99.90;;;;;;5052266;28;20033;-52
2023/10/25 06:38:42;;;;;;;18.05;8.88;;;7.70;99.90;;;;;;5053388;28;20044;-52
2023/10/25 06:41:18;;;;;;;24.23;9.68;;;8.00;99.90;;;;;;5052499;28;20037;-50
2023/10/25 06:43:45;;;;;;;24.27;9.93;;;7.90;99.90;;;;;;5052782;28;20430;-52
2023/10/25 06:46:14;;;;;;;21.77;9.00;;;7.70;99.90;;;;;;5034124;28;20037;-52
2023/10/25 06:48:40;;;;;;;19.23;8.88;;;7.60;99.90;;;;;;5052255;28;20500;-54
2023/10/25 06:51:07;;;;;;;25.38;9.43;;;8.10;99.90;;;;;;5051861;28;20041;-51
2023/10/25 06:53:33;;;;;;;20.92;8.98;;;8.10;99.90;;;;;;5051652;28;20041;-54
2023/10/25 06:55:59;;;;;;;18.50;8.85;;;7.60;99.90;;;;;;5052712;28;20045;-52
2023/10/25 06:58:26;;;;;;;17.65;8.85;;;7.60;99.90;;;;;;5052595;28;20094;-53
2023/10/25 07:00:55;;;;;;;20.52;9.52;;;8.10;99.90;;;;;;5032211;28;20123;-55
2023/10/25 07:03:26;;;;;;;18.67;7.90;;;8.10;99.90;;;;;;5044366;28;20067;-55
2023/10/25 07:05:55;;;;;;;18.05;13.98;;;7.80;99.90;;;;;;5040190;28;20043;-54
2023/10/25 07:08:21;;;;;;;19.30;8.40;;;7.70;99.90;;;;;;5038583;28;20131;-53
2023/10/25 07:10:47;;;;;;;17.45;8.63;;;7.70;99.90;;;;;;5041310;28;20051;-54
2023/10/25 07:13:13;;;;;;;18.17;7.80;;;7.70;99.90;;;;;;5042740;28;20025;-54
2023/10/25 07:15:39;;;;;;;19.52;8.82;;;7.80;99.90;;;;;;5043583;28;20029;-54
2023/10/25 07:18:05;;;;;;;16.98;7.60;;;8.00;99.90;;;;;;5043299;28;20045;-54
2023/10/25 07:20:31;;;;;;;22.13;8.48;;;8.40;99.90;;;;;;5038807;28;20274;-54
2023/10/25 07:22:57;;;;;;;19.45;8.27;;;7.90;99.90;;;;;;5043378;28;20037;-54
2023/10/25 07:25:23;;;;;;;19.33;8.82;;;8.20;99.90;;;;;;5041132;28;20496;-53
2023/10/25 07:27:48;;;;;;;17.90;8.18;;;8.40;99.90;;;;;;5042239;28;20029;-53
2023/10/25 07:30:14;;;;;;;15.57;8.18;;;8.10;99.90;;;;;;5027306;28;20388;-54
2023/10/25 07:32:40;;;;;;;13.63;8.40;;;8.60;99.90;;;;;;5044210;28;20043;-54
2023/10/25 07:35:06;;;;;;;17.67;8.10;;;8.30;99.90;;;;;;5043483;28;20132;-52
2023/10/25 07:37:32;;;;;;;20.38;8.93;;;8.20;99.90;;;;;;5043092;28;20037;-55
2023/10/25 07:39:58;;;;;;;14.05;8.05;;;8.10;99.90;;;;;;5043524;28;20044;-54
2023/10/25 07:42:24;;;;;;;18.05;9.73;;;8.10;99.90;;;;;;5040441;28;20048;-53
2023/10/25 07:44:50;;;;;;;17.58;9.38;;;8.20;99.90;;;;;;5043609;28;20049;-54
2023/10/25 07:47:20;;;;;;;15.32;9.10;;;8.40;99.90;;;;;;5043991;28;20053;-54
2023/10/25 07:49:46;;;;;;;15.52;8.82;;;8.40;99.90;;;;;;5020255;28;20128;-52
2023/10/25 07:52:12;;;;;;;18.75;8.77;;;8.30;99.90;;;;;;5027109;28;20038;-52
2023/10/25 07:54:38;;;;;;;14.50;8.65;;;8.80;99.90;;;;;;5027159;28;20122;-52
2023/10/25 07:57:04;;;;;;;16.92;8.93;;;8.50;99.90;;;;;;5023388;28;20458;-53
2023/10/25 07:59:29;;;;;;;18.63;8.75;;;8.80;99.90;;;;;;5042632;28;20040;-52
2023/10/25 08:01:58;;;;;;;17.50;9.10;;;8.90;99.90;;;;;;5044508;28;20060;-51
2023/10/25 08:04:24;;;;;;;19.52;8.93;;;9.00;99.90;;;;;;5042832;28;20036;-51
2023/10/25 08:06:49;;;;;;;19.13;8.48;;;9.00;99.90;;;;;;5042626;28;20761;-53
2023/10/25 08:09:15;;;;;;;14.73;8.23;;;9.00;99.90;;;;;;5042845;28;20029;-52
2023/10/25 08:11:41;;;;;;;21.33;9.15;;;8.80;99.90;;;;;;5009236;28;20556;-52
2023/10/25 08:14:07;;;;;;;18.67;8.90;;;8.90;99.90;;;;;;5027210;28;20060;-54
2023/10/25 08:16:38;;;;;;;18.58;12.57;;;8.70;99.90;;;;;;5042496;28;20035;-52
2023/10/25 08:19:05;;;;;;;17.27;11.80;;;8.90;99.90;;;;;;5039959;28;20104;-54
2023/10/25 08:21:30;;;;;;;20.75;13.27;;;8.80;99.90;;;;;;5040236;28;20037;-54
2023/10/25 08:23:56;;;;;;;16.70;7.65;;;8.80;99.90;;;;;;5040061;28;20040;-54
2023/10/25 08:26:25;;;;;;;13.93;7.18;;;9.30;99.90;;;;;;5040886;28;20487;-53
2023/10/25 08:28:51;;;;;;;18.38;8.27;;;8.90;99.90;;;;;;5043132;28;20112;-52
2023/10/25 08:31:18;;;;;;;16.52;8.45;;;8.80;99.90;;;;;;5041251;28;20812;-52
2023/10/25 08:33:45;;;;;;;21.33;8.80;;;9.00;99.90;;;;;;5041622;28;20089;-53
2023/10/25 08:36:11;;;;;;;18.27;12.68;;;9.30;99.90;;;;;;5041793;28;20041;-54
2023/10/25 08:38:37;;;;;;;15.60;12.77;;;9.50;99.90;;;;;;5041637;28;20412;-54
2023/10/25 08:41:06;;;;;;;19.08;8.23;;;9.10;99.90;;;;;;5025330;28;20055;-53
2023/10/25 08:43:33;;;;;;;21.10;8.90;;;9.10;99.90;;;;;;5040108;28;20029;-51
2023/10/25 08:46:03;;;;;;;18.70;8.43;;;9.60;99.90;;;;;;5041170;28;20033;-53
2023/10/25 08:48:29;;;;;;;20.48;8.93;;;9.20;99.90;;;;;;5025325;28;20132;-53
2023/10/25 08:50:56;;;;;;;15.48;8.77;;;9.20;99.90;;;;;;5042146;28;20033;-53
2023/10/25 08:53:28;;;;;;;17.42;12.02;;;9.30;99.90;;;;;;5039505;28;20461;-52
2023/10/25 08:55:55;;;;;;;15.07;8.32;;;9.30;99.90;;;;;;5037639;28;20072;-52
2023/10/25 08:58:25;;;;;;;15.13;8.68;;;9.70;99.90;;;;;;5041745;28;20389;-51
2023/10/25 09:00:53;;;;;;;17.60;8.00;;;9.90;99.90;;;;;;5041945;28;20849;-53
2023/10/25 09:03:31;;;;;;;19.65;8.25;;;9.70;99.90;;;;;;5041112;28;20029;-52
2023/10/25 09:05:57;;;;;;;21.90;8.68;;;9.70;99.90;;;;;;5038915;28;20531;-53
2023/10/25 09:08:26;;;;;;;19.05;8.68;;;10.10;99.90;;;;;;5041888;28;20040;-52
2023/10/25 09:10:56;;;;;;;16.27;8.25;;;9.90;99.90;;;;;;5041821;28;20033;-51
2023/10/25 09:13:23;;;;;;;22.40;8.70;;;10.00;99.90;;;;;;5040401;28;23574;-50
2023/10/25 09:15:49;;;;;;;18.02;8.55;;;9.90;99.90;;;;;;5033579;28;20037;-53
2023/10/25 09:18:14;;;;;;;14.77;8.70;;;10.30;99.90;;;;;;5042678;28;20372;-52
2023/10/25 09:20:40;;;;;;;15.35;8.15;;;10.30;99.90;;;;;;5041570;28;20041;-52
2023/10/25 09:23:12;;;;;;;17.67;9.52;;;10.00;99.90;;;;;;5040625;28;20111;-53
2023/10/25 09:25:38;;;;;;;17.90;9.30;;;10.00;99.90;;;;;;5040759;28;20128;-51
2023/10/25 09:28:13;;;;;;;16.70;8.20;;;10.50;99.90;;;;;;5040857;28;20061;-51
2023/10/25 09:30:39;;;;;;;11.70;8.50;;;10.40;99.90;;;;;;5042161;28;20152;-49
2023/10/25 09:33:04;;;;;;;17.33;8.93;;;10.10;99.90;;;;;;5040324;28;20124;-55
2023/10/25 09:35:31;;;;;;;17.73;8.48;;;10.20;99.90;;;;;;5040517;28;20033;-52
2023/10/25 09:37:57;;;;;;;21.17;10.77;;;10.60;99.90;;;;;;5041168;28;20087;-55
2023/10/25 09:40:23;;;;;;;18.88;8.63;;;10.60;99.90;;;;;;5041194;28;20049;-53
2023/10/25 09:42:52;;;;;;;17.38;7.97;;;10.30;99.90;;;;;;5041942;28;20100;-53
2023/10/25 09:45:27;;;;;;;20.10;11.05;;;10.50;99.90;;;;;;5041916;28;20045;-55
2023/10/25 09:47:55;;;;;;;14.40;6.82;;;10.70;99.90;;;;;;5024586;28;20057;-52
2023/10/25 09:50:35;;;;;;;16.00;7.75;;;10.70;99.90;;;;;;5041605;28;20477;-52
2023/10/25 09:53:10;;;;;;;13.48;7.50;;;10.50;99.90;;;;;;5031659;28;20086;-52
2023/10/25 09:55:40;;;;;;;16.08;7.40;;;10.70;99.90;;;;;;5024372;28;20041;-53
2023/10/25 09:58:10;;;;;;;19.40;7.60;;;10.40;99.90;;;;;;5046991;28;20041;-53
2023/10/25 10:00:36;;;;;;;15.20;7.68;;;10.80;99.90;;;;;;5047864;28;20037;-50
2023/10/25 10:03:16;;;;;;;16.38;7.30;;;10.80;99.90;;;;;;5042938;28;20049;-51
2023/10/25 10:05:58;;;;;;;20.38;8.02;;;10.60;99.90;;;;;;5050582;28;20047;-49
2023/10/25 10:08:36;;;;;;;18.52;7.63;;;10.70;99.90;;;;;;5053385;28;20040;-49
2023/10/25 10:11:08;;;;;;;10.98;6.95;;;10.60;99.90;;;;;;5051829;28;20033;-50
2023/10/25 10:13:34;;;;;;;17.95;7.70;;;10.80;99.90;;;;;;5054256;28;20541;-52
2023/10/25 10:16:05;;;;;;;13.93;8.10;;;10.80;99.90;;;;;;5036094;28;20136;-54
2023/10/25 10:18:52;;;;;;;15.60;9.88;;;10.50;99.90;;;;;;5036537;28;20104;-50
2023/10/25 10:21:17;;;;;;;14.45;7.47;;;10.80;99.90;;;;;;5036301;28;20041;-50
2023/10/25 10:23:51;;;;;;;17.80;7.75;;;10.70;99.90;;;;;;5035967;28;20123;-52
2023/10/25 10:26:47;;;;;;;14.98;10.10;;;10.70;99.90;;;;;;5053907;28;20377;-52
2023/10/25 10:29:31;;;;;;;14.45;8.52;;;10.80;99.90;;;;;;5023901;28;20124;-54
2023/10/25 10:32:04;;;;;;;;;;;10.60;99.90;;;;;;5048870;28;20118;-53
2023/10/25 10:34:55;;;;;;;15.68;8.30;;;10.90;99.90;;;;;;5051470;28;19921;-53
2023/10/25 10:37:29;;;;;;;18.25;8.13;;;10.70;99.90;;;;;;5051209;28;20072;-54
2023/10/25 10:40:01;;;;;;;16.77;8.63;;;10.70;99.90;;;;;;5034114;28;20047;-55
2023/10/25 10:42:30;;;;;;;15.73;7.63;;;10.60;99.90;;;;;;5051232;28;20373;-55
2023/10/25 10:45:00;;;;;;;17.23;8.30;;;11.00;99.90;;;;;;5052609;28;20041;-51
2023/10/25 10:47:43;;;;;;;13.90;8.70;;;11.00;99.90;;;;;;5033729;28;20077;-53
2023/10/25 10:50:20;;;;;;;20.02;9.68;;;11.00;99.90;;;;;;5052390;28;20122;-53
2023/10/25 10:52:47;;;;;;;14.35;7.90;;;10.70;99.90;;;;;;5034191;28;20078;-53
2023/10/25 10:55:14;;;;;;;13.43;8.65;;;11.00;99.90;;;;;;5051531;28;20536;-55
2023/10/25 10:57:40;;;;;;;16.05;11.20;;;10.70;99.90;;;;;;5048940;28;20041;-52
2023/10/25 11:00:10;;;;;;;14.75;8.63;;;10.80;99.90;;;;;;5051045;28;20040;-54
2023/10/25 11:02:39;;;;;;;15.90;8.60;;;10.70;99.90;;;;;;5051192;28;20041;-53
2023/10/25 11:05:05;;;;;;;15.48;8.63;;;11.00;99.90;;;;;;5033141;28;20037;-55
2023/10/25 11:07:31;;;;;;;15.55;8.88;;;11.00;99.90;;;;;;5050829;28;20095;-54
2023/10/25 11:09:57;;;;;;;22.65;9.02;;;10.90;99.90;;;;;;5050767;28;20048;-55
2023/10/25 11:12:23;;;;;;;18.70;8.75;;;10.90;99.90;;;;;;5050838;28;20045;-53
2023/10/25 11:14:50;;;;;;;17.83;8.63;;;10.70;99.90;;;;;;5050270;28;20037;-54
2023/10/25 11:17:16;;;;;;;15.70;11.02;;;10.90;99.90;;;;;;5051368;28;20041;-51
2023/10/25 11:19:45;;;;;;;16.58;8.70;;;10.70;99.90;;;;;;5052252;28;20108;-52
2023/10/25 11:22:11;;;;;;;22.45;8.50;;;11.10;99.90;;;;;;5052470;28;20045;-53
2023/10/25 11:24:37;;;;;;;14.60;10.93;;;10.90;99.90;;;;;;5034273;28;20816;-50
2023/10/25 11:27:03;;;;;;;16.25;8.18;;;10.70;99.90;;;;;;5052708;28;20033;-53
2023/10/25 11:29:38;;;;;;;16.58;8.07;;;11.10;99.90;;;;;;5046342;28;20116;-51
2023/10/25 11:32:06;;;;;;;17.23;8.13;;;10.70;99.90;;;;;;5050028;28;20044;-51
2023/10/25 11:34:33;;;;;;;15.15;8.45;;;10.90;99.90;;;;;;5050760;28;20045;-53
2023/10/25 11:37:00;;;;;;;16.67;8.13;;;10.60;99.90;;;;;;5048380;28;20040;-53
2023/10/25 11:39:30;;;;;;;18.88;11.88;;;10.60;99.90;;;;;;5051104;28;20505;-51
2023/10/25 11:41:59;;;;;;;20.05;7.88;;;10.60;99.90;;;;;;5050874;28;20044;-51
2023/10/25 11:44:26;;;;;;;15.70;8.52;;;10.60;99.90;;;;;;5047972;28;20120;-50
2023/10/25 11:46:55;;;;;;;15.93;8.90;;;10.90;99.90;;;;;;5050295;28;20043;-53
2023/10/25 11:49:21;;;;;;;16.88;9.30;;;11.00;99.90;;;;;;5050599;28;20103;-51
2023/10/25 11:51:47;;;;;;;16.73;11.43;;;10.70;99.90;;;;;;5049166;28;20053;-54
2023/10/25 11:54:13;;;;;;;13.73;8.30;;;11.00;99.90;;;;;;5049104;28;20126;-49
2023/10/25 11:56:40;;;;;;;19.92;8.55;;;10.80;99.90;;;;;;5032839;28;20028;-52
2023/10/25 11:59:05;;;;;;;15.63;8.18;;;10.60;99.90;;;;;;5050565;28;20048;-51
2023/10/25 12:01:31;;;;;;;15.55;11.32;;;11.00;99.90;;;;;;5050505;28;20033;-52
2023/10/25 12:03:57;;;;;;;12.52;7.68;;;10.90;99.90;;;;;;5049910;28;20061;-53
2023/10/25 12:06:24;;;;;;;17.10;8.20;;;10.60;99.90;;;;;;5016121;28;20076;-53
2023/10/25 12:08:49;;;;;;;16.42;8.32;;;10.80;99.90;;;;;;5032572;28;20033;-52
2023/10/25 12:11:15;;;;;;;18.02;9.00;;;10.90;99.90;;;;;;5050110;28;20070;-48
2023/10/25 12:13:42;;;;;;;18.00;8.98;;;11.00;99.90;;;;;;5050057;28;20037;-48
2023/10/25 12:16:09;;;;;;;17.92;8.98;;;10.40;99.90;;;;;;5050609;28;20053;-50
2023/10/25 12:18:36;;;;;;;18.27;8.88;;;10.50;99.90;;;;;;5046910;28;20029;-48
2023/10/25 12:21:06;;;;;;;23.90;8.98;;;10.80;99.90;;;;;;5050246;28;20523;-51
2023/10/25 12:23:34;;;;;;;18.05;8.40;;;10.50;99.90;;;;;;5050418;28;20119;-53
2023/10/25 12:26:00;;;;;;;18.63;9.32;;;11.00;99.90;;;;;;5050588;28;20134;-51
2023/10/25 12:28:26;;;;;;;17.77;9.65;;;10.70;99.90;;;;;;5049158;28;20044;-51
2023/10/25 12:30:53;;;;;;;19.00;9.20;;;10.50;99.90;;;;;;5049746;28;20532;-50
2023/10/25 12:33:19;;;;;;;16.40;9.07;;;10.40;99.90;;;;;;5049499;28;20116;-50
2023/10/25 12:35:45;;;;;;;17.98;13.90;;;10.90;99.90;;;;;;5050089;28;20437;-51
2023/10/25 12:38:10;;;;;;;19.20;9.10;;;11.00;99.90;;;;;;5049929;28;20280;-52
2023/10/25 12:40:36;;;;;;;19.30;9.70;;;10.60;99.90;;;;;;5050184;28;20171;-53
2023/10/25 12:43:02;;;;;;;18.63;9.60;;;10.90;99.90;;;;;;5049490;28;20052;-50
2023/10/25 12:45:28;;;;;;;19.67;9.40;;;11.00;99.90;;;;;;5049171;28;20045;-50